Time;durP1;ratioP1;P1;durP2;ratioP2;P2;SDS_P1;SDS_P2;PMS_P1;PMS_P2;Temp;Humidity;BMP_temperature;BMP_pressure;BME280_temperature;BME280_humidity;BME280_pressure;Samples;Min_cycle;Max_cycle;Signal;HPM_P1;HPM_P2
2022/04/25 00:02:02;;;;;;;30.20;27.15;;;5.90;99.90;;;;;;5087969;28;20040;-81
2022/04/25 00:04:28;;;;;;;28.13;25.63;;;5.90;99.90;;;;;;5070185;28;20055;-81
2022/04/25 00:06:55;;;;;;;29.25;25.88;;;5.80;99.90;;;;;;5091224;28;20033;-81
2022/04/25 00:09:21;;;;;;;30.75;28.30;;;5.70;99.90;;;;;;5087543;28;20405;-81
2022/04/25 00:11:47;;;;;;;29.58;27.15;;;5.60;99.90;;;;;;5084291;28;20036;-80
2022/04/25 00:14:15;;;;;;;31.67;28.77;;;5.50;99.90;;;;;;5092536;28;20047;-80
2022/04/25 00:16:41;;;;;;;29.58;27.05;;;5.40;99.90;;;;;;5089575;28;20491;-81
2022/04/25 00:19:08;;;;;;;30.83;28.27;;;5.40;99.90;;;;;;5090723;28;20465;-81
2022/04/25 00:21:34;;;;;;;29.48;26.98;;;5.40;99.90;;;;;;5086233;28;20394;-82
2022/04/25 00:24:01;;;;;;;31.65;28.92;;;5.40;99.90;;;;;;5090138;28;20036;-81
2022/04/25 00:26:27;;;;;;;30.73;27.98;;;5.30;99.90;;;;;;5089595;28;20079;-81
2022/04/25 00:28:53;;;;;;;29.92;27.52;;;5.30;99.90;;;;;;5089769;28;20039;-81
2022/04/25 00:31:19;;;;;;;31.52;28.67;;;5.30;99.90;;;;;;5092600;28;20479;-80
2022/04/25 00:33:46;;;;;;;31.45;28.75;;;5.20;99.90;;;;;;5088405;28;20381;-81
2022/04/25 00:36:13;;;;;;;33.05;30.17;;;5.30;99.90;;;;;;5091830;28;20044;-80
2022/04/25 00:38:40;;;;;;;30.35;27.83;;;5.20;99.90;;;;;;5088726;28;20040;-80
2022/04/25 00:41:06;;;;;;;29.13;26.88;;;5.00;99.90;;;;;;5091179;28;20048;-80
2022/04/25 00:43:33;;;;;;;30.40;27.85;;;4.90;99.90;;;;;;5090081;28;20036;-80
2022/04/25 00:45:59;;;;;;;31.42;28.17;;;5.00;99.90;;;;;;5091500;28;20044;-80
2022/04/25 00:48:25;;;;;;;30.95;28.35;;;4.90;99.90;;;;;;5075887;28;20401;-81
2022/04/25 00:50:52;;;;;;;30.88;28.20;;;4.90;99.90;;;;;;5092208;28;20028;-81
2022/04/25 00:53:18;;;;;;;30.92;28.20;;;4.90;99.90;;;;;;5091610;28;20024;-81
2022/04/25 00:55:44;;;;;;;33.10;30.33;;;4.90;99.90;;;;;;5091259;28;20465;-81
2022/04/25 00:58:12;;;;;;;35.10;31.85;;;4.90;99.90;;;;;;5086756;28;20032;-81
2022/04/25 01:00:38;;;;;;;31.23;28.50;;;4.90;99.90;;;;;;5086272;28;20029;-81
2022/04/25 01:03:05;;;;;;;32.63;29.85;;;4.80;99.90;;;;;;5094346;28;20040;-81
2022/04/25 01:05:32;;;;;;;32.53;29.67;;;4.90;99.90;;;;;;5091703;28;20035;-81
2022/04/25 01:07:59;;;;;;;29.60;27.13;;;4.70;99.90;;;;;;5088094;28;20036;-81
2022/04/25 01:10:26;;;;;;;32.15;29.10;;;4.60;99.90;;;;;;5091710;28;20031;-82
2022/04/25 01:12:52;;;;;;;30.73;27.67;;;4.50;99.90;;;;;;5110489;28;20043;-81
2022/04/25 01:15:19;;;;;;;29.63;26.90;;;4.50;99.90;;;;;;5093988;28;20040;-80
2022/04/25 01:17:45;;;;;;;32.78;29.40;;;4.40;99.90;;;;;;5111663;28;20385;-82
2022/04/25 01:20:11;;;;;;;34.50;30.80;;;4.50;99.90;;;;;;5111776;28;20028;-81
2022/04/25 01:22:44;;;;;;;32.80;29.60;;;4.60;99.90;;;;;;5091781;28;20504;-81
2022/04/25 01:27:57;;;;;;;30.60;27.80;;;4.40;99.90;;;;;;5106991;28;20040;-81
2022/04/25 01:30:23;;;;;;;30.10;27.30;;;4.30;99.90;;;;;;5111150;28;20038;-80
2022/04/25 01:32:50;;;;;;;29.10;26.67;;;4.30;99.90;;;;;;5095806;28;20048;-81
2022/04/25 01:35:16;;;;;;;28.65;26.17;;;4.20;99.90;;;;;;5106544;28;20039;-81
2022/04/25 01:37:42;;;;;;;30.90;28.13;;;4.20;99.90;;;;;;5071838;28;20043;-81
2022/04/25 01:40:09;;;;;;;32.05;28.52;;;4.10;99.90;;;;;;5077615;28;20042;-81
2022/04/25 01:42:35;;;;;;;31.83;29.27;;;4.10;99.90;;;;;;5110732;28;20032;-81
2022/04/25 01:45:03;;;;;;;33.95;30.92;;;4.10;99.90;;;;;;5109420;28;20139;-81
2022/04/25 01:47:30;;;;;;;31.25;28.52;;;4.00;99.90;;;;;;5113203;28;20040;-80
2022/04/25 01:49:56;;;;;;;33.95;30.60;;;4.00;99.90;;;;;;5105157;28;20028;-80
2022/04/25 01:52:28;;;;;;;37.83;34.10;;;4.00;99.90;;;;;;5104737;28;20047;-81
2022/04/25 01:54:54;;;;;;;35.78;32.80;;;4.20;99.90;;;;;;5112456;28;20043;-80
2022/04/25 01:57:21;;;;;;;34.97;31.90;;;4.20;99.90;;;;;;5092296;28;20039;-80
2022/04/25 01:59:47;;;;;;;29.58;27.02;;;4.20;99.90;;;;;;5110892;28;20036;-80
2022/04/25 02:02:14;;;;;;;31.58;28.88;;;4.00;99.90;;;;;;5107581;28;20032;-80
2022/04/25 02:04:41;;;;;;;30.00;27.67;;;3.90;99.90;;;;;;5076865;28;20058;-81
2022/04/25 02:07:09;;;;;;;31.08;28.30;;;3.90;99.90;;;;;;5111212;28;20036;-81
2022/04/25 02:09:36;;;;;;;31.70;28.98;;;3.80;99.90;;;;;;5107043;28;20024;-81
2022/04/25 02:12:04;;;;;;;30.85;28.13;;;3.80;99.90;;;;;;5094927;28;20048;-80
2022/04/25 02:14:31;;;;;;;36.15;32.70;;;3.80;99.90;;;;;;5107800;28;20032;-81
2022/04/25 02:16:58;;;;;;;33.55;30.67;;;3.80;99.90;;;;;;5091788;28;20040;-80
2022/04/25 02:19:29;;;;;;;35.63;32.05;;;3.80;99.90;;;;;;5081784;28;20031;-81
2022/04/25 02:21:56;;;;;;;36.15;32.67;;;3.80;99.90;;;;;;5093861;28;20046;-80
2022/04/25 02:24:22;;;;;;;34.08;30.77;;;3.80;99.90;;;;;;5093692;28;20040;-80
2022/04/25 02:26:49;;;;;;;34.72;31.27;;;3.70;99.90;;;;;;5091598;28;20527;-80
2022/04/25 02:29:16;;;;;;;35.95;31.98;;;3.70;99.90;;;;;;5102837;28;20024;-80
2022/04/25 02:31:42;;;;;;;35.65;31.73;;;3.70;99.90;;;;;;5098126;28;20046;-78
2022/04/25 02:34:09;;;;;;;37.78;33.83;;;3.60;99.90;;;;;;5098993;28;20047;-80
2022/04/25 02:36:35;;;;;;;34.42;31.63;;;3.50;99.90;;;;;;5093565;28;20032;-80
2022/04/25 02:39:02;;;;;;;36.42;33.33;;;3.50;99.90;;;;;;5096790;28;20114;-81
2022/04/25 02:41:29;;;;;;;34.97;31.08;;;3.50;99.90;;;;;;5113355;28;21471;-80
2022/04/25 02:43:55;;;;;;;33.70;30.50;;;3.30;99.90;;;;;;5095342;28;20047;-80
2022/04/25 02:46:21;;;;;;;35.17;31.70;;;3.10;99.90;;;;;;5112388;28;20027;-81
2022/04/25 02:48:47;;;;;;;33.28;30.23;;;3.00;99.90;;;;;;5112315;28;20465;-79
2022/04/25 02:51:15;;;;;;;33.92;30.77;;;3.00;99.90;;;;;;5096972;28;20043;-80
2022/04/25 02:53:42;;;;;;;32.67;29.67;;;3.00;99.90;;;;;;5095985;28;20032;-80
2022/04/25 02:56:08;;;;;;;31.55;28.88;;;2.90;99.90;;;;;;5096149;28;20054;-80
2022/04/25 02:58:37;;;;;;;34.13;31.08;;;2.90;99.90;;;;;;5111117;28;20408;-81
2022/04/25 03:01:06;;;;;;;32.08;29.05;;;2.90;99.90;;;;;;5096490;28;20039;-80
2022/04/25 03:03:35;;;;;;;31.30;28.17;;;2.80;99.90;;;;;;5114635;28;20040;-81
2022/04/25 03:06:06;;;;;;;33.28;29.98;;;2.80;99.90;;;;;;5096713;28;20496;-80
2022/04/25 03:08:34;;;;;;;34.85;31.65;;;2.80;99.90;;;;;;5092773;28;20031;-79
2022/04/25 03:11:03;;;;;;;34.15;30.73;;;2.80;99.90;;;;;;5095662;28;20039;-80
2022/04/25 03:13:29;;;;;;;33.13;30.20;;;2.90;99.90;;;;;;5090035;28;20056;-80
2022/04/25 03:15:55;;;;;;;35.17;31.83;;;2.70;99.90;;;;;;5112440;28;20063;-80
2022/04/25 03:18:22;;;;;;;35.47;32.35;;;2.80;99.90;;;;;;5093695;28;20035;-79
2022/04/25 03:20:50;;;;;;;41.80;36.30;;;2.90;99.90;;;;;;5091705;28;20038;-79
2022/04/25 03:23:19;;;;;;;38.42;34.67;;;3.00;99.90;;;;;;5089962;28;20645;-79
2022/04/25 03:25:46;;;;;;;37.10;33.53;;;3.00;99.90;;;;;;5108295;28;20031;-79
2022/04/25 03:28:13;;;;;;;32.38;29.42;;;2.90;99.90;;;;;;5094378;28;20035;-80
2022/04/25 03:30:39;;;;;;;32.78;29.60;;;2.70;99.90;;;;;;5092211;28;20043;-79
2022/04/25 03:33:06;;;;;;;30.05;27.38;;;2.60;99.90;;;;;;5114898;28;20098;-79
2022/04/25 03:35:32;;;;;;;30.73;28.25;;;2.60;99.90;;;;;;5113173;28;20072;-79
2022/04/25 03:37:59;;;;;;;29.23;26.77;;;2.50;99.90;;;;;;5112283;28;20039;-79
2022/04/25 03:40:25;;;;;;;30.77;27.75;;;2.50;99.90;;;;;;5096255;28;20032;-80
2022/04/25 03:42:55;;;;;;;27.60;25.05;;;2.40;99.90;;;;;;5098593;28;20044;-80
2022/04/25 03:45:22;;;;;;;29.90;27.27;;;2.40;99.90;;;;;;5075316;28;20047;-80
2022/04/25 03:47:48;;;;;;;31.67;28.63;;;2.40;99.90;;;;;;5093299;28;20047;-80
2022/04/25 03:50:16;;;;;;;33.72;29.73;;;2.50;99.90;;;;;;5095991;28;20039;-80
2022/04/25 03:52:44;;;;;;;32.47;29.48;;;2.50;99.90;;;;;;5112777;28;20039;-80
2022/04/25 03:58:00;;;;;;;30.70;27.95;;;2.50;99.90;;;;;;5098734;28;20485;-80
2022/04/25 04:00:26;;;;;;;31.50;28.80;;;2.40;99.90;;;;;;5110679;28;20024;-80
2022/04/25 04:02:52;;;;;;;29.05;26.58;;;2.40;99.90;;;;;;5086984;28;20044;-79
2022/04/25 04:05:20;;;;;;;30.83;28.13;;;2.30;99.90;;;;;;5110303;28;20030;-81
2022/04/25 04:07:48;;;;;;;32.85;29.85;;;2.30;99.90;;;;;;5110091;28;20302;-80
2022/04/25 04:10:16;;;;;;;34.17;30.73;;;2.40;99.90;;;;;;5076038;28;21471;-80
2022/04/25 04:12:46;;;;;;;32.85;29.65;;;2.40;99.90;;;;;;5093980;28;20058;-80
2022/04/25 04:15:13;;;;;;;32.50;29.55;;;2.50;99.90;;;;;;5112412;28;20032;-79
2022/04/25 04:17:40;;;;;;;33.90;30.70;;;2.50;99.90;;;;;;5092745;28;20028;-79
2022/04/25 04:20:08;;;;;;;34.50;31.27;;;2.40;99.90;;;;;;5094184;28;20040;-80
2022/04/25 04:22:36;;;;;;;36.83;33.33;;;2.40;99.90;;;;;;5074913;28;20074;-80
2022/04/25 04:25:08;;;;;;;36.97;33.78;;;2.40;99.90;;;;;;5109163;28;20031;-79
2022/04/25 04:27:34;;;;;;;44.47;39.78;;;2.40;99.90;;;;;;5081163;28;20465;-80
2022/04/25 04:30:05;;;;;;;41.95;37.58;;;2.40;99.90;;;;;;5107036;28;20032;-81
2022/04/25 04:32:32;;;;;;;43.72;39.70;;;2.30;99.90;;;;;;5095155;28;20048;-81
2022/04/25 04:34:59;;;;;;;42.20;38.33;;;2.20;99.90;;;;;;5099880;28;20039;-79
2022/04/25 04:37:27;;;;;;;44.90;40.40;;;2.10;99.90;;;;;;5108604;28;20027;-80
2022/04/25 04:40:28;;;;;;;43.17;39.17;;;2.10;99.90;;;;;;5109343;28;20039;-80
2022/04/25 04:42:42;;;;;;;40.78;36.85;;;2.10;99.90;;;;;;5105608;28;20040;-80
2022/04/25 04:45:11;;;;;;;43.25;39.03;;;2.20;99.90;;;;;;5110362;28;20039;-80
2022/04/25 04:47:38;;;;;;;47.15;41.28;;;2.40;99.90;;;;;;5091895;28;20040;-80
2022/04/25 04:50:07;;;;;;;45.45;40.88;;;2.60;99.90;;;;;;5081952;28;20496;-80
2022/04/25 04:52:34;;;;;;;44.40;40.28;;;2.70;99.90;;;;;;5093200;28;20397;-80
2022/04/25 04:55:00;;;;;;;45.80;41.28;;;2.90;99.90;;;;;;5112218;28;20038;-80
2022/04/25 04:57:26;;;;;;;43.72;39.55;;;3.20;99.90;;;;;;5090553;28;20039;-82
2022/04/25 04:59:52;;;;;;;41.85;37.90;;;3.90;99.90;;;;;;5111396;28;20038;-80
2022/04/25 05:02:18;;;;;;;32.83;29.92;;;4.80;99.90;;;;;;5111179;28;20038;-82
2022/04/25 05:04:45;;;;;;;32.33;29.02;;;5.50;99.90;;;;;;5087425;28;20044;-83
2022/04/25 05:07:11;;;;;;;24.17;21.58;;;6.50;99.90;;;;;;5083954;28;20028;-84
2022/04/25 05:09:37;;;;;;;21.90;19.80;;;6.50;99.90;;;;;;5104159;28;20032;-84
2022/04/25 05:12:04;;;;;;;23.17;20.48;;;6.60;99.90;;;;;;5110102;28;20070;-84
2022/04/25 05:14:30;;;;;;;25.35;23.08;;;6.40;99.90;;;;;;5093779;28;20495;-85
2022/04/25 05:16:56;;;;;;;22.70;20.45;;;6.20;99.90;;;;;;5107952;28;20042;-85
2022/04/25 05:19:22;;;;;;;20.45;18.63;;;5.90;99.90;;;;;;5075745;27;20032;-86
2022/04/25 05:21:49;;;;;;;22.88;20.70;;;6.00;99.90;;;;;;5115772;28;20043;-85
2022/04/25 05:24:15;;;;;;;20.95;18.92;;;6.40;99.90;;;;;;5112390;28;20053;-85
2022/04/25 05:26:41;;;;;;;27.00;24.40;;;7.40;99.90;;;;;;5109800;28;20042;-86
2022/04/25 05:29:07;;;;;;;24.73;22.38;;;8.00;99.90;;;;;;5089962;28;20040;-86
2022/04/25 05:31:34;;;;;;;25.27;21.95;;;8.40;99.90;;;;;;5106733;28;20032;-86
2022/04/25 05:34:01;;;;;;;26.75;24.02;;;8.90;99.90;;;;;;5075592;28;20461;-87
2022/04/25 05:36:27;;;;;;;21.63;19.73;;;9.30;99.90;;;;;;5074383;28;20036;-86
2022/04/25 05:38:54;;;;;;;26.63;24.08;;;9.70;99.90;;;;;;5092242;28;20036;-87
2022/04/25 05:41:20;;;;;;;25.58;23.00;;;10.30;99.90;;;;;;5116252;28;20023;-87
2022/04/25 05:43:46;;;;;;;16.15;14.65;;;11.00;97.10;;;;;;5113412;28;20385;-87
2022/04/25 05:46:12;;;;;;;16.90;14.40;;;10.90;96.50;;;;;;5094230;28;20039;-86
2022/04/25 05:54:10;;;;;;;18.67;16.85;;;10.20;99.10;;;;;;5111173;28;20039;-86
2022/04/25 05:56:36;;;;;;;19.25;17.35;;;9.70;99.90;;;;;;5074842;28;20051;-85
2022/04/25 05:59:03;;;;;;;19.42;17.25;;;9.60;99.90;;;;;;5091624;28;20039;-85
2022/04/25 06:01:29;;;;;;;21.98;15.98;;;9.80;99.90;;;;;;5109186;28;20027;-84
2022/04/25 06:03:56;;;;;;;18.85;17.02;;;10.00;99.90;;;;;;5114539;28;20048;-84
2022/04/25 06:06:23;;;;;;;21.88;19.13;;;9.70;99.90;;;;;;5113740;28;20508;-83
2022/04/25 06:08:50;;;;;;;23.20;19.30;;;9.90;99.90;;;;;;5118341;28;20028;-84
2022/04/25 06:11:16;;;;;;;20.83;18.50;;;10.00;99.90;;;;;;5116038;28;20036;-84
2022/04/25 06:13:44;;;;;;;27.95;23.08;;;10.00;99.90;;;;;;5085288;28;20062;-84
2022/04/25 06:16:13;;;;;;;20.67;17.05;;;10.00;99.90;;;;;;5125960;28;20038;-79
2022/04/25 06:18:39;;;;;;;18.17;16.40;;;9.70;99.90;;;;;;5112635;28;20453;-81
2022/04/25 06:21:06;;;;;;;21.60;17.50;;;9.10;99.90;;;;;;5112616;28;20457;-81
2022/04/25 06:23:32;;;;;;;20.13;18.23;;;8.80;99.90;;;;;;5115651;28;20055;-79
2022/04/25 06:25:59;;;;;;;20.42;18.67;;;8.50;99.90;;;;;;5112070;28;20028;-82
2022/04/25 06:28:25;;;;;;;25.10;19.48;;;8.40;99.90;;;;;;5111528;28;20034;-82
2022/04/25 06:30:52;;;;;;;22.10;20.13;;;8.30;99.90;;;;;;5109937;27;20058;-82
2022/04/25 06:33:18;;;;;;;24.35;21.88;;;8.20;99.90;;;;;;5115454;28;20035;-81
2022/04/25 06:35:45;;;;;;;22.75;20.63;;;8.10;99.90;;;;;;5098569;28;20044;-81
2022/04/25 06:38:12;;;;;;;23.48;21.10;;;8.10;99.90;;;;;;5100419;28;20043;-79
2022/04/25 06:40:38;;;;;;;25.67;23.00;;;8.10;99.90;;;;;;5112840;28;20491;-81
2022/04/25 06:43:05;;;;;;;27.42;25.02;;;8.10;99.90;;;;;;5108406;28;20047;-80
2022/04/25 06:45:31;;;;;;;27.20;24.63;;;8.20;99.90;;;;;;5110309;28;20035;-81
2022/04/25 06:47:57;;;;;;;25.65;23.55;;;8.30;99.90;;;;;;5094099;28;20284;-81
2022/04/25 06:50:23;;;;;;;24.48;22.30;;;8.40;99.90;;;;;;5087490;28;20027;-80
2022/04/25 06:52:50;;;;;;;24.00;21.92;;;8.80;99.90;;;;;;5095141;28;20269;-81
2022/04/25 06:55:16;;;;;;;26.88;24.52;;;9.00;99.90;;;;;;5094430;28;20070;-81
2022/04/25 06:57:42;;;;;;;26.30;23.83;;;9.20;99.90;;;;;;5094988;28;20035;-81
2022/04/25 07:00:11;;;;;;;30.13;27.00;;;9.80;99.90;;;;;;5112658;28;20380;-80
2022/04/25 07:02:38;;;;;;;20.35;16.92;;;12.00;99.90;;;;;;5113383;28;20097;-80
2022/04/25 07:05:06;;;;;;;15.73;14.23;;;12.40;99.90;;;;;;5112964;28;20035;-81
2022/04/25 07:07:33;;;;;;;15.43;13.65;;;12.80;99.50;;;;;;5107535;28;20035;-81
2022/04/25 07:09:59;;;;;;;15.93;13.48;;;13.70;97.70;;;;;;5112233;28;20141;-78
2022/04/25 07:12:27;;;;;;;15.45;13.93;;;13.40;95.70;;;;;;5109456;28;20040;-81
2022/04/25 07:14:53;;;;;;;17.52;15.07;;;12.60;97.80;;;;;;5086482;28;20040;-81
2022/04/25 07:17:19;;;;;;;19.13;14.85;;;12.50;98.60;;;;;;5112225;28;20031;-82
2022/04/25 07:19:46;;;;;;;20.90;16.67;;;12.90;99.00;;;;;;5108438;28;20031;-78
2022/04/25 07:30:26;;;;;;;19.05;17.23;;;16.30;90.50;;;;;;5106864;28;20031;-79
2022/04/25 07:32:55;;;;;;;19.33;17.58;;;17.20;84.40;;;;;;5105494;28;20465;-80
2022/04/25 07:35:21;;;;;;;18.30;16.55;;;16.60;85.20;;;;;;5110837;28;20027;-80
2022/04/25 07:37:48;;;;;;;18.25;16.38;;;15.10;90.20;;;;;;5092130;28;20302;-80
2022/04/25 07:40:14;;;;;;;18.85;16.80;;;15.80;90.50;;;;;;5093932;28;20039;-81
2022/04/25 07:42:41;;;;;;;19.15;16.55;;;16.50;87.90;;;;;;5100599;28;20038;-81
2022/04/25 07:45:08;;;;;;;18.13;16.52;;;16.80;84.50;;;;;;5113549;28;20354;-80
2022/04/25 07:47:35;;;;;;;16.70;15.30;;;17.90;79.50;;;;;;5105846;28;20046;-81
2022/04/25 07:50:02;;;;;;;18.52;16.83;;;17.00;78.90;;;;;;5110293;28;20016;-81
2022/04/25 07:52:28;;;;;;;18.35;16.63;;;17.10;80.50;;;;;;5095034;28;20042;-81
2022/04/25 07:54:56;;;;;;;18.25;16.38;;;16.40;83.20;;;;;;5095094;28;20044;-81
2022/04/25 07:57:22;;;;;;;15.50;14.10;;;16.90;80.00;;;;;;5094724;28;20039;-81
2022/04/25 07:59:49;;;;;;;14.40;13.07;;;17.00;78.50;;;;;;5111110;28;20031;-81
2022/04/25 08:02:17;;;;;;;15.85;14.23;;;17.80;75.40;;;;;;5099276;28;20031;-79
2022/04/25 08:04:47;;;;;;;20.20;18.23;;;18.40;72.70;;;;;;5090753;28;20048;-80
2022/04/25 08:07:13;;;;;;;17.80;15.93;;;16.30;79.00;;;;;;5100864;28;20455;-80
2022/04/25 08:09:40;;;;;;;17.35;15.68;;;17.10;79.00;;;;;;5094029;28;20038;-81
2022/04/25 08:20:21;;;;;;;15.63;14.23;;;17.00;77.80;;;;;;5108124;28;20019;-80
2022/04/25 08:22:47;;;;;;;15.40;12.98;;;16.90;77.60;;;;;;5111544;28;20043;-80
2022/04/25 08:25:15;;;;;;;14.18;12.88;;;18.00;76.00;;;;;;5105895;28;20055;-81
2022/04/25 08:27:41;;;;;;;12.93;11.63;;;17.40;71.40;;;;;;5085663;28;20035;-82
2022/04/25 08:30:08;;;;;;;16.45;14.90;;;16.60;73.70;;;;;;5090604;28;20036;-81
2022/04/25 08:32:34;;;;;;;15.43;13.90;;;16.70;73.90;;;;;;5089933;28;20024;-83
2022/04/25 08:35:03;;;;;;;13.80;12.20;;;17.60;69.90;;;;;;5076265;28;20062;-79
2022/04/25 08:37:29;;;;;;;15.95;11.05;;;18.60;66.80;;;;;;5112459;28;20457;-81
2022/04/25 08:39:55;;;;;;;10.55;9.65;;;17.70;64.60;;;;;;5092393;28;20063;-83
2022/04/25 08:42:22;;;;;;;11.95;10.00;;;17.40;68.30;;;;;;5088296;28;20039;-83
2022/04/25 08:44:52;;;;;;;10.27;9.27;;;18.40;66.00;;;;;;5091798;28;20035;-83
2022/04/25 08:47:20;;;;;;;9.77;8.75;;;17.90;66.10;;;;;;5095505;28;20036;-81
2022/04/25 08:49:47;;;;;;;8.65;7.53;;;16.80;66.10;;;;;;5090144;28;20024;-83
2022/04/25 08:52:14;;;;;;;9.45;8.45;;;15.80;70.90;;;;;;5107392;28;20039;-82
2022/04/25 08:54:42;;;;;;;8.77;7.93;;;16.00;71.90;;;;;;5085770;28;20503;-82
2022/04/25 08:57:10;;;;;;;7.70;6.82;;;15.90;68.50;;;;;;5108448;28;20035;-83
2022/04/25 08:59:37;;;;;;;7.22;6.63;;;16.90;69.50;;;;;;5090753;28;20040;-83
2022/04/25 09:02:03;;;;;;;8.02;6.43;;;18.60;63.30;;;;;;5109860;28;20050;-82
2022/04/25 09:04:29;;;;;;;6.75;6.00;;;17.80;63.60;;;;;;5087418;28;20059;-82
2022/04/25 09:06:55;;;;;;;6.03;5.45;;;18.00;62.50;;;;;;5111162;28;20043;-82
2022/04/25 09:09:22;;;;;;;12.52;11.52;;;18.80;62.30;;;;;;5109339;28;20055;-82
2022/04/25 09:14:33;;;;;;;7.05;6.45;;;19.80;59.10;;;;;;5109800;28;20403;-83
2022/04/25 09:17:03;;;;;;;11.05;6.93;;;18.60;57.90;;;;;;5090318;28;20061;-83
2022/04/25 09:19:36;;;;;;;6.10;5.50;;;18.50;60.00;;;;;;5089273;28;20040;-83
2022/04/25 09:22:03;;;;;;;6.78;6.18;;;18.90;60.60;;;;;;5109979;28;20036;-83
2022/04/25 09:24:34;;;;;;;7.57;6.88;;;19.90;58.40;;;;;;5109967;28;20393;-83
2022/04/25 09:27:09;;;;;;;;;;;19.90;56.30;;;;;;5111986;28;20399;-83
2022/04/25 09:29:36;;;;;;;6.75;6.05;;;19.50;58.20;;;;;;5087423;28;19919;-82
2022/04/25 09:32:04;;;;;;;7.97;7.25;;;20.50;57.50;;;;;;5091985;28;20437;-82
2022/04/25 09:37:17;;;;;;;7.65;5.90;;;19.20;58.20;;;;;;5087830;28;20378;-82
2022/04/25 09:39:44;;;;;;;6.15;5.60;;;19.00;58.40;;;;;;5090542;28;20039;-83
2022/04/25 09:42:11;;;;;;;9.05;7.43;;;18.60;57.30;;;;;;5087799;28;20028;-84
2022/04/25 09:44:55;;;;;;;7.10;6.35;;;17.00;59.70;;;;;;5111125;28;20043;-81
2022/04/25 09:47:26;;;;;;;7.03;6.35;;;16.00;65.10;;;;;;5104438;28;20500;-81
2022/04/25 09:50:18;;;;;;;6.82;6.18;;;16.90;63.80;;;;;;5108606;28;20222;-81
2022/04/25 09:52:56;;;;;;;6.97;6.28;;;17.50;62.20;;;;;;5081123;28;20059;-81
2022/04/25 09:55:24;;;;;;;7.10;6.43;;;17.50;61.90;;;;;;5083247;28;20373;-81
2022/04/25 09:57:51;;;;;;;8.40;6.32;;;18.40;63.80;;;;;;5088463;28;20031;-81
2022/04/25 10:00:38;;;;;;;7.80;7.10;;;18.90;60.40;;;;;;5107573;28;20432;-80
2022/04/25 10:03:05;;;;;;;6.50;6.00;;;18.00;59.50;;;;;;5090734;28;20051;-80
2022/04/25 10:05:52;;;;;;;6.85;6.13;;;17.30;61.40;;;;;;5108855;28;20031;-81
2022/04/25 10:08:19;;;;;;;7.15;6.45;;;17.00;63.70;;;;;;5089563;28;20028;-81
2022/04/25 10:10:48;;;;;;;6.15;5.30;;;17.50;62.40;;;;;;5106338;28;20031;-81
2022/04/25 10:13:16;;;;;;;6.65;5.40;;;18.20;61.10;;;;;;5086987;28;20044;-80
2022/04/25 10:15:44;;;;;;;8.13;6.05;;;18.30;60.40;;;;;;5105527;28;20035;-80
2022/04/25 10:18:12;;;;;;;7.93;5.60;;;18.00;61.50;;;;;;5092634;28;20040;-80
2022/04/25 10:20:40;;;;;;;6.40;5.75;;;17.90;59.10;;;;;;5109344;28;20036;-82
2022/04/25 10:23:09;;;;;;;6.50;5.35;;;17.40;61.50;;;;;;5107907;28;20507;-81
2022/04/25 10:25:37;;;;;;;6.05;5.50;;;17.30;61.90;;;;;;5104560;28;20035;-80
2022/04/25 10:28:08;;;;;;;6.97;5.78;;;17.60;61.70;;;;;;5108075;28;20035;-78
2022/04/25 10:30:38;;;;;;;6.50;5.40;;;17.00;61.00;;;;;;5111330;28;20036;-80
2022/04/25 10:33:49;;;;;;;6.57;5.50;;;16.80;61.90;;;;;;5111814;28;20070;-79
2022/04/25 10:36:34;;;;;;;;;;;17.10;62.90;;;;;;5059678;28;20035;-79
2022/04/25 10:39:45;;;;;;;5.57;4.88;;;17.70;61.70;;;;;;5087301;28;19923;-79
2022/04/25 10:44:56;;;;;;;6.50;5.40;;;17.60;62.30;;;;;;5103807;28;19919;-79
2022/04/25 10:47:25;;;;;;;6.47;4.32;;;18.10;60.80;;;;;;5083225;28;20043;-78
2022/04/25 10:49:55;;;;;;;5.47;5.07;;;18.20;59.50;;;;;;5111025;28;20034;-79
2022/04/25 10:52:33;;;;;;;;;;;17.90;59.60;;;;;;5113622;28;20024;-78
2022/04/25 10:55:23;;;;;;;6.05;4.72;;;17.50;61.30;;;;;;5111093;28;19923;-78
2022/04/25 10:58:04;;;;;;;4.45;3.58;;;17.80;59.30;;;;;;5110144;28;20043;-79
2022/04/25 11:00:36;;;;;;;4.45;4.05;;;18.00;59.90;;;;;;5101773;28;20135;-79
2022/04/25 11:03:19;;;;;;;9.65;4.30;;;18.00;59.50;;;;;;5111683;28;20059;-79
2022/04/25 11:05:51;;;;;;;4.32;3.35;;;18.00;58.50;;;;;;5081434;28;20051;-78
2022/04/25 11:08:18;;;;;;;4.68;4.00;;;17.80;57.70;;;;;;5112857;28;20040;-77
2022/04/25 11:11:05;;;;;;;5.35;3.92;;;17.10;58.20;;;;;;5087185;28;20043;-78
2022/04/25 11:14:01;;;;;;;4.35;3.83;;;17.20;59.80;;;;;;5103529;28;20050;-78
2022/04/25 11:16:28;;;;;;;5.03;4.05;;;17.60;59.90;;;;;;5094545;28;20040;-78
2022/04/25 11:19:13;;;;;;;4.03;3.55;;;17.00;59.10;;;;;;5113617;28;20035;-78
2022/04/25 11:21:49;;;;;;;3.20;2.75;;;17.10;58.80;;;;;;5081450;28;20536;-78
2022/04/25 11:24:35;;;;;;;3.80;3.10;;;17.60;58.20;;;;;;5113516;28;20388;-78
2022/04/25 11:27:04;;;;;;;6.07;3.17;;;18.20;57.60;;;;;;5106738;28;20038;-78
2022/04/25 11:29:30;;;;;;;4.47;4.03;;;17.70;58.70;;;;;;5094395;28;20054;-77
2022/04/25 11:32:25;;;;;;;5.47;4.32;;;18.40;57.70;;;;;;5093506;28;20040;-78
2022/04/25 11:34:52;;;;;;;4.57;4.18;;;18.80;57.60;;;;;;5093495;28;20070;-78
2022/04/25 11:37:19;;;;;;;3.72;3.42;;;18.60;55.10;;;;;;5113498;28;20039;-79
2022/04/25 11:39:56;;;;;;;3.88;3.47;;;18.90;55.20;;;;;;5113241;28;20425;-78
2022/04/25 11:42:29;;;;;;;7.57;3.95;;;18.70;54.90;;;;;;5101879;28;20109;-79
2022/04/25 11:44:56;;;;;;;3.83;3.30;;;17.90;56.20;;;;;;5111984;28;20043;-78
2022/04/25 11:47:23;;;;;;;4.20;3.90;;;18.00;58.10;;;;;;5108265;28;20024;-78
2022/04/25 11:50:00;;;;;;;4.20;3.72;;;17.40;57.70;;;;;;5112192;28;20027;-78
2022/04/25 11:52:27;;;;;;;6.13;3.65;;;17.10;58.50;;;;;;5105384;28;20534;-78
2022/04/25 11:54:54;;;;;;;4.18;3.35;;;16.30;58.10;;;;;;5111710;28;20047;-77
2022/04/25 11:57:22;;;;;;;3.70;3.22;;;16.30;58.30;;;;;;5113852;28;20032;-78
2022/04/25 11:59:48;;;;;;;4.65;4.15;;;16.80;58.90;;;;;;5094233;28;20044;-77
2022/04/25 12:02:15;;;;;;;4.40;3.75;;;17.20;57.50;;;;;;5094606;28;20050;-77
2022/04/25 12:04:43;;;;;;;4.70;3.47;;;17.40;56.90;;;;;;5089620;28;20032;-78
2022/04/25 12:07:11;;;;;;;3.78;3.22;;;17.60;55.50;;;;;;5110873;28;20055;-77
2022/04/25 12:18:13;;;;;;;4.75;3.92;;;18.10;55.50;;;;;;5106804;28;20032;-78
2022/04/25 12:20:40;;;;;;;4.57;4.10;;;18.30;55.20;;;;;;5108198;28;20384;-78
2022/04/25 12:23:06;;;;;;;9.30;8.27;;;18.10;56.00;;;;;;5063283;28;20465;-77
2022/04/25 12:25:40;;;;;;;8.77;4.43;;;18.40;56.70;;;;;;5112062;28;20428;-77
2022/04/25 12:28:17;;;;;;;6.35;5.07;;;18.30;56.50;;;;;;5106761;28;20054;-77
2022/04/25 12:30:45;;;;;;;18.17;14.10;;;18.20;57.40;;;;;;5108825;28;20035;-78
2022/04/25 12:33:14;;;;;;;6.22;5.30;;;18.20;57.40;;;;;;5091888;28;20027;-77
2022/04/25 12:35:42;;;;;;;6.75;6.10;;;18.00;58.70;;;;;;5110332;28;20032;-76
2022/04/25 12:38:09;;;;;;;11.02;6.38;;;17.90;58.80;;;;;;5094102;28;20039;-78
2022/04/25 12:40:57;;;;;;;5.72;4.95;;;17.90;59.40;;;;;;5111903;28;20038;-79
2022/04/25 12:43:41;;;;;;;7.93;6.32;;;18.20;58.70;;;;;;5105623;28;20032;-79
2022/04/25 12:46:08;;;;;;;6.32;5.45;;;18.30;58.30;;;;;;5105938;28;20039;-78
2022/04/25 12:48:57;;;;;;;8.27;6.38;;;18.00;59.50;;;;;;5112066;28;20035;-77
2022/04/25 12:51:37;;;;;;;8.05;7.15;;;17.40;60.10;;;;;;5107360;28;20043;-75
2022/04/25 12:54:20;;;;;;;7.78;6.13;;;17.00;61.60;;;;;;5095217;28;20474;-75
2022/04/25 12:56:47;;;;;;;7.47;6.63;;;17.10;61.60;;;;;;5103893;28;20032;-75
2022/04/25 12:59:23;;;;;;;6.35;5.75;;;17.30;62.30;;;;;;5086495;28;20027;-76
2022/04/25 13:02:01;;;;;;;6.78;6.18;;;17.30;61.10;;;;;;5106311;28;20138;-78
2022/04/25 13:04:27;;;;;;;8.48;6.18;;;17.50;61.70;;;;;;5069288;28;20433;-75
2022/04/25 13:06:54;;;;;;;7.85;7.15;;;17.80;61.00;;;;;;5087362;28;20552;-76
2022/04/25 13:09:20;;;;;;;7.18;5.85;;;17.90;59.10;;;;;;5105330;28;20043;-76
2022/04/25 13:11:46;;;;;;;9.18;5.93;;;17.90;58.30;;;;;;5089527;28;20035;-75
2022/04/25 13:14:14;;;;;;;6.50;5.28;;;17.50;58.30;;;;;;5104756;28;20150;-76
2022/04/25 13:16:41;;;;;;;6.32;4.93;;;17.30;60.90;;;;;;5089700;28;20032;-76
2022/04/25 13:19:07;;;;;;;5.93;5.05;;;17.80;60.50;;;;;;5084510;28;20067;-76
2022/04/25 13:21:38;;;;;;;5.00;4.05;;;18.00;59.50;;;;;;5086038;28;20028;-75
2022/04/25 13:24:04;;;;;;;9.85;5.22;;;18.00;59.90;;;;;;5089790;28;20035;-76
2022/04/25 13:26:30;;;;;;;5.93;5.30;;;18.10;58.90;;;;;;5089150;28;20404;-76
2022/04/25 13:28:56;;;;;;;7.10;5.32;;;18.10;58.90;;;;;;5088022;28;20253;-77
2022/04/25 13:31:23;;;;;;;5.32;4.82;;;17.90;58.50;;;;;;5084462;28;20447;-76
2022/04/25 13:33:49;;;;;;;5.25;4.60;;;17.50;59.00;;;;;;5072978;28;20055;-76